Time;durP1;ratioP1;P1;durP2;ratioP2;P2;SDS_P1;SDS_P2;PMS_P1;PMS_P2;Temp;Humidity;BMP_temperature;BMP_pressure;BME280_temperature;BME280_humidity;BME280_pressure;Samples;Min_cycle;Max_cycle;Signal;HPM_P1;HPM_P2
2023/06/13 00:00:49;;;;;;;0.70;0.70;;;;;;;18.67;100.00;96528.16;5065020;28;20056;-66
2023/06/13 00:03:19;;;;;;;0.77;0.77;;;;;;;18.66;100.00;96525.78;5063645;28;20045;-66
2023/06/13 00:05:46;;;;;;;0.70;0.70;;;;;;;18.70;100.00;96521.66;5065004;28;20045;-66
2023/06/13 00:08:17;;;;;;;0.70;0.70;;;;;;;18.75;100.00;96518.34;5064563;28;20507;-67
2023/06/13 00:10:46;;;;;;;0.70;0.70;;;;;;;18.82;100.00;96521.00;5064094;28;20044;-66
2023/06/13 00:13:15;;;;;;;0.70;0.70;;;;;;;18.78;100.00;96523.09;5063570;28;20056;-66
2023/06/13 00:15:54;;;;;;;0.75;0.75;;;;;;;18.83;100.00;96511.34;5063364;28;20056;-66
2023/06/13 00:18:22;;;;;;;0.70;0.70;;;;;;;18.68;100.00;96482.06;5064894;28;20057;-66
2023/06/13 00:20:52;;;;;;;0.80;0.80;;;;;;;18.94;100.00;96509.06;5063273;28;20087;-67
2023/06/13 00:23:18;;;;;;;0.70;0.70;;;;;;;18.34;100.00;96419.91;5063343;28;20500;-67
2023/06/13 00:25:45;;;;;;;0.75;0.75;;;;;;;18.92;100.00;96505.91;5064618;28;20044;-66
2023/06/13 00:28:12;;;;;;;0.70;0.70;;;;;;;18.97;100.00;96501.78;5064878;28;20052;-66
2023/06/13 00:30:38;;;;;;;0.70;0.70;;;;;;;18.91;100.00;96504.34;5052351;28;20049;-66
2023/06/13 00:33:05;;;;;;;0.70;0.70;;;;;;;18.96;100.00;96503.81;5044436;28;20516;-66
2023/06/13 00:35:33;;;;;;;0.70;0.70;;;;;;;18.97;100.00;96505.41;5044245;28;20063;-67
2023/06/13 00:38:02;;;;;;;0.70;0.70;;;;;;;18.96;100.00;96511.44;5047333;28;20371;-66
2023/06/13 00:40:28;;;;;;;0.80;0.80;;;;;;;18.93;100.00;96501.91;5064215;28;20060;-66
2023/06/13 00:42:58;;;;;;;0.70;0.70;;;;;;;18.92;100.00;96505.91;5064358;28;20132;-67
2023/06/13 00:45:26;;;;;;;0.70;0.70;;;;;;;18.87;100.00;96502.84;5063598;28;20503;-66
2023/06/13 00:47:57;;;;;;;0.70;0.70;;;;;;;18.36;100.00;96451.13;5062512;28;20139;-67
2023/06/13 00:50:31;;;;;;;0.70;0.70;;;;;;;18.47;100.00;96456.50;5097376;28;20481;-66
2023/06/13 00:52:59;;;;;;;0.70;0.70;;;;;;;18.56;100.00;96465.91;5104820;28;20125;-68
2023/06/13 00:55:27;;;;;;;0.70;0.70;;;;;;;18.57;100.00;96489.94;5103181;28;20946;-67
2023/06/13 00:58:05;;;;;;;0.70;0.70;;;;;;;18.62;100.00;96492.19;5104653;28;20104;-68
2023/06/13 01:00:34;;;;;;;0.73;0.73;;;;;;;17.93;100.00;96389.63;5104580;28;20060;-66
2023/06/13 01:03:09;;;;;;;0.70;0.70;;;;;;;18.63;100.00;96505.03;5104765;28;20130;-67
2023/06/13 01:05:39;;;;;;;0.70;0.70;;;;;;;18.31;100.00;96485.28;5104535;28;20059;-67
2023/06/13 01:08:35;;;;;;;0.70;0.70;;;;;;;18.39;100.00;96485.94;5103129;28;20055;-67
2023/06/13 01:11:12;;;;;;;0.70;0.70;;;;;;;18.34;100.00;96489.22;5103576;28;20505;-66
2023/06/13 01:13:54;;;;;;;0.70;0.70;;;;;;;18.32;100.00;96494.50;5104556;28;20051;-66
2023/06/13 01:16:28;;;;;;;0.70;0.70;;;;;;;18.06;100.00;96437.38;5104367;28;20055;-68
2023/06/13 01:18:58;;;;;;;0.60;0.60;;;;;;;18.31;100.00;96479.66;5104583;28;20166;-66
2023/06/13 01:21:26;;;;;;;0.70;0.70;;;;;;;17.93;100.00;96444.88;5103940;28;20052;-67
2023/06/13 01:24:04;;;;;;;0.80;0.80;;;;;;;18.15;100.00;96478.84;5102664;28;20139;-66
2023/06/13 01:26:43;;;;;;;0.77;0.77;;;;;;;18.03;100.00;96449.47;5102484;28;20477;-67
2023/06/13 01:29:11;;;;;;;0.70;0.70;;;;;;;18.29;100.00;96479.31;5104360;28;20059;-66
2023/06/13 01:31:41;;;;;;;0.70;0.70;;;;;;;18.22;100.00;96457.06;5103891;28;20048;-66
2023/06/13 01:34:08;;;;;;;0.70;0.70;;;;;;;18.09;100.00;96436.50;5104334;28;20083;-66
2023/06/13 01:36:35;;;;;;;0.70;0.70;;;;;;;18.32;100.00;96472.81;5104052;28;20056;-66
2023/06/13 01:39:02;;;;;;;0.70;0.70;;;;;;;17.68;100.00;96400.56;5088544;28;20048;-67
2023/06/13 01:41:29;;;;;;;0.70;0.70;;;;;;;18.05;100.00;96472.25;5063268;28;20057;-67
2023/06/13 01:43:56;;;;;;;0.70;0.70;;;;;;;17.96;100.00;96477.63;5062358;28;20045;-66
2023/06/13 01:46:33;;;;;;;0.60;0.60;;;;;;;17.80;100.00;96471.94;5063570;28;20048;-66
2023/06/13 01:49:08;;;;;;;0.60;0.60;;;;;;;16.40;100.00;96249.56;5063861;28;20052;-66
2023/06/13 01:51:46;;;;;;;0.60;0.60;;;;;;;17.59;100.00;96475.19;5063588;28;20126;-66
2023/06/13 01:54:20;;;;;;;0.60;0.60;;;;;;;17.40;100.00;96456.31;5063590;28;20044;-67
2023/06/13 01:56:55;;;;;;;0.70;0.70;;;;;;;17.39;100.00;96477.94;5063451;28;20052;-67
2023/06/13 01:59:25;;;;;;;0.65;0.65;;;;;;;16.81;100.00;96414.22;5062573;28;20103;-66
2023/06/13 02:01:54;;;;;;;0.60;0.60;;;;;;;17.21;100.00;96465.47;5063355;28;20052;-66
2023/06/13 02:04:20;;;;;;;0.70;0.70;;;;;;;15.29;100.00;96179.59;5063418;28;20442;-65
2023/06/13 02:06:48;;;;;;;0.60;0.60;;;;;;;17.13;100.00;96455.63;5061829;28;20056;-66
2023/06/13 02:09:14;;;;;;;0.65;0.65;;;;;;;14.11;100.00;95974.63;5063528;28;20055;-66
2023/06/13 02:11:41;;;;;;;0.70;0.70;;;;;;;17.14;100.00;96469.19;5063628;28;20052;-66
2023/06/13 02:14:08;;;;;;;0.70;0.70;;;;;;;17.15;100.00;96462.38;5063477;28;20053;-65
2023/06/13 02:16:39;;;;;;;0.65;0.65;;;;;;;17.11;100.00;96464.44;5062085;28;20053;-65
2023/06/13 02:19:07;;;;;;;0.70;0.70;;;;;;;17.02;100.00;96474.63;5062420;28;20076;-67
2023/06/13 02:21:34;;;;;;;0.70;0.70;;;;;;;17.08;100.00;96467.31;5063138;28;20045;-65
2023/06/13 02:24:00;;;;;;;0.77;0.77;;;;;;;15.42;100.00;96264.34;5063110;28;20101;-66
2023/06/13 02:26:28;;;;;;;0.70;0.70;;;;;;;17.07;100.00;96472.09;5063135;28;20056;-67
2023/06/13 02:28:57;;;;;;;0.70;0.70;;;;;;;17.04;100.00;96477.78;5063057;28;20052;-66
2023/06/13 02:31:24;;;;;;;0.70;0.70;;;;;;;16.87;100.00;96450.88;5061713;28;20141;-65
2023/06/13 02:33:51;;;;;;;0.60;0.60;;;;;;;17.02;100.00;96481.00;5064724;28;20109;-65
2023/06/13 02:36:18;;;;;;;0.70;0.70;;;;;;;17.05;100.00;96482.16;5066599;28;20490;-65
2023/06/13 02:38:44;;;;;;;0.73;0.73;;;;;;;17.05;100.00;96484.94;5082982;28;20044;-65
2023/06/13 02:41:11;;;;;;;0.68;0.68;;;;;;;16.96;100.00;96504.31;5107026;28;20051;-66
2023/06/13 02:43:38;;;;;;;0.70;0.70;;;;;;;17.04;100.00;96488.97;5107504;28;20051;-66
2023/06/13 02:46:06;;;;;;;0.70;0.70;;;;;;;17.06;100.00;96487.31;5107306;28;20048;-65
2023/06/13 02:48:33;;;;;;;0.70;0.70;;;;;;;17.18;100.00;96491.53;5105440;28;20528;-64
2023/06/13 02:51:00;;;;;;;0.70;0.70;;;;;;;16.88;100.00;96446.88;5107114;28;20083;-66
2023/06/13 02:53:27;;;;;;;0.70;0.70;;;;;;;17.27;100.00;96492.56;5107240;28;20051;-65
2023/06/13 02:55:54;;;;;;;0.70;0.70;;;;;;;17.06;100.00;96478.13;5106676;28;20043;-64
2023/06/13 02:58:21;;;;;;;0.70;0.70;;;;;;;17.12;100.00;96496.81;5070991;28;20101;-65
2023/06/13 03:00:48;;;;;;;0.60;0.60;;;;;;;17.28;100.00;96493.34;5052963;28;20074;-66
2023/06/13 03:03:18;;;;;;;0.70;0.70;;;;;;;17.30;100.00;96490.91;5066119;28;20048;-67
2023/06/13 03:05:47;;;;;;;0.70;0.70;;;;;;;17.36;100.00;96498.38;5081427;28;20049;-65
2023/06/13 03:08:18;;;;;;;0.70;0.70;;;;;;;17.32;100.00;96494.06;5081622;28;20048;-65
2023/06/13 03:10:47;;;;;;;0.70;0.70;;;;;;;17.02;100.00;96457.81;5066032;28;20060;-65
2023/06/13 03:13:16;;;;;;;0.70;0.70;;;;;;;17.36;100.00;96495.59;5066606;28;20141;-65
2023/06/13 03:15:47;;;;;;;0.70;0.70;;;;;;;17.25;100.00;96488.59;5080951;28;20513;-65
2023/06/13 03:18:14;;;;;;;0.70;0.70;;;;;;;17.43;100.00;96512.28;5066212;28;20654;-65
2023/06/13 03:20:48;;;;;;;0.70;0.70;;;;;;;17.41;100.00;96499.91;5066014;28;20099;-65
2023/06/13 03:23:17;;;;;;;0.70;0.70;;;;;;;17.16;100.00;96443.56;5065860;28;20432;-66
2023/06/13 03:25:45;;;;;;;0.80;0.80;;;;;;;17.67;100.00;96494.22;5065674;28;20053;-66
2023/06/13 03:28:12;;;;;;;0.70;0.70;;;;;;;17.85;100.00;96505.06;5066154;28;20265;-65
2023/06/13 03:30:39;;;;;;;0.70;0.70;;;;;;;17.98;100.00;96503.22;5065322;28;20146;-66
2023/06/13 03:33:05;;;;;;;0.70;0.70;;;;;;;17.99;100.00;96511.19;5066009;28;20045;-67
2023/06/13 03:35:34;;;;;;;0.70;0.70;;;;;;;17.99;100.00;96516.78;5065548;28;20045;-65
2023/06/13 03:38:01;;;;;;;0.77;0.77;;;;;;;17.68;100.00;96461.41;5080855;28;20066;-66
2023/06/13 03:40:28;;;;;;;0.80;0.80;;;;;;;17.65;100.00;96451.06;5085424;28;20048;-66
2023/06/13 03:42:57;;;;;;;0.70;0.70;;;;;;;17.82;100.00;96461.09;5085656;28;20064;-66
2023/06/13 03:45:25;;;;;;;0.70;0.70;;;;;;;18.17;100.00;96516.44;5084223;28;20059;-66
2023/06/13 03:47:51;;;;;;;0.70;0.70;;;;;;;18.29;100.00;96507.34;5085476;28;20055;-65
2023/06/13 03:50:18;;;;;;;0.70;0.70;;;;;;;18.32;100.00;96508.50;5086193;28;20529;-65
2023/06/13 03:52:45;;;;;;;0.80;0.80;;;;;;;18.48;100.00;96502.97;5085559;28;20502;-65
2023/06/13 03:55:13;;;;;;;0.80;0.80;;;;;;;18.43;100.00;96509.88;5083991;28;20054;-66
2023/06/13 03:57:40;;;;;;;0.70;0.70;;;;;;;17.67;100.00;96398.97;5084855;28;20067;-65
2023/06/13 04:00:08;;;;;;;0.70;0.70;;;;;;;18.68;100.00;96512.94;5083977;28;20060;-65
2023/06/13 04:02:34;;;;;;;0.70;0.70;;;;;;;18.24;100.00;96418.13;5085141;28;20506;-64
2023/06/13 04:05:02;;;;;;;0.75;0.75;;;;;;;18.97;100.00;96513.00;5084967;28;20044;-64
2023/06/13 04:07:33;;;;;;;0.60;0.60;;;;;;;19.09;98.46;96515.13;5085177;28;20496;-66
2023/06/13 04:10:04;;;;;;;0.70;0.70;;;;;;;19.07;97.71;96518.38;5085325;28;20133;-65
2023/06/13 04:12:30;;;;;;;0.75;0.75;;;;;;;19.15;96.83;96519.00;5085310;28;20048;-64
2023/06/13 04:14:58;;;;;;;0.70;0.70;;;;;;;19.20;97.00;96522.09;5084952;28;20446;-64
2023/06/13 04:17:24;;;;;;;0.70;0.70;;;;;;;19.31;93.51;96522.63;5083348;28;20048;-64
2023/06/13 04:19:52;;;;;;;0.80;0.80;;;;;;;19.13;94.14;96505.41;5084545;28;20131;-65
2023/06/13 04:22:19;;;;;;;0.70;0.70;;;;;;;19.02;92.59;96482.41;5084545;28;20052;-65
2023/06/13 04:24:47;;;;;;;0.80;0.80;;;;;;;19.22;93.12;96508.38;5084908;28;20044;-66
2023/06/13 04:27:19;;;;;;;0.80;0.80;;;;;;;19.41;92.38;96521.56;5084793;28;20047;-66
2023/06/13 04:29:48;;;;;;;0.77;0.77;;;;;;;19.54;92.15;96530.84;5084739;28;20114;-64
2023/06/13 04:32:17;;;;;;;0.70;0.70;;;;;;;19.67;90.29;96530.13;5083232;28;20098;-64
2023/06/13 04:34:45;;;;;;;0.70;0.70;;;;;;;19.64;90.75;96529.00;5085524;28;20058;-64
2023/06/13 04:37:13;;;;;;;0.80;0.80;;;;;;;19.74;89.51;96515.88;5083372;28;20043;-65
2023/06/13 04:39:40;;;;;;;0.70;0.70;;;;;;;19.90;88.99;96525.03;5084815;28;20048;-64
2023/06/13 04:42:07;;;;;;;0.80;0.80;;;;;;;19.89;89.80;96534.72;5084548;28;20054;-65
2023/06/13 04:44:35;;;;;;;0.80;0.80;;;;;;;19.66;89.57;96480.78;5073066;28;20054;-66
2023/06/13 04:47:02;;;;;;;0.80;0.80;;;;;;;20.02;89.13;96544.00;5084360;28;20059;-64
2023/06/13 04:49:30;;;;;;;0.80;0.80;;;;;;;19.76;90.55;96513.44;5084932;28;20052;-65
2023/06/13 04:51:58;;;;;;;0.70;0.70;;;;;;;19.85;92.44;96538.88;5084488;28;20075;-66
2023/06/13 04:54:25;;;;;;;0.80;0.80;;;;;;;19.98;92.53;96548.16;5083112;28;20071;-65
2023/06/13 04:56:52;;;;;;;0.80;0.80;;;;;;;19.77;92.42;96498.94;5083911;28;20052;-64
2023/06/13 04:59:19;;;;;;;0.80;0.80;;;;;;;20.05;91.81;96514.19;5084116;28;20565;-63
2023/06/13 05:01:47;;;;;;;0.80;0.80;;;;;;;19.97;90.81;96495.94;5084334;28;20513;-66
2023/06/13 05:04:15;;;;;;;0.80;0.80;;;;;;;13.84;89.68;95511.75;5082667;28;20101;-66
2023/06/13 05:06:42;;;;;;;0.80;0.80;;;;;;;20.53;89.75;96551.38;5083782;28;20509;-66
2023/06/13 05:09:08;;;;;;;0.70;0.70;;;;;;;19.18;88.25;96322.34;5083850;28;20062;-67
2023/06/13 05:11:35;;;;;;;0.95;0.95;;;;;;;20.42;88.39;96517.13;5084127;28;20562;-65
2023/06/13 05:14:02;;;;;;;0.70;0.70;;;;;;;20.83;88.57;96553.66;5082709;28;20048;-66
2023/06/13 05:16:29;;;;;;;0.90;0.90;;;;;;;18.93;86.15;96266.13;5083621;28;20577;-67
2023/06/13 05:18:57;;;;;;;0.80;0.80;;;;;;;20.93;87.25;96558.19;5084024;28;20465;-66
2023/06/13 05:21:24;;;;;;;0.80;0.80;;;;;;;21.08;86.98;96572.63;5082495;28;20058;-65
2023/06/13 05:23:52;;;;;;;0.80;0.80;;;;;;;20.10;88.77;96561.47;5082420;28;20063;-66
2023/06/13 05:26:18;;;;;;;0.70;0.70;;;;;;;19.46;92.39;96574.41;5084071;28;20059;-65
2023/06/13 05:28:45;;;;;;;0.70;0.70;;;;;;;19.55;89.41;96532.41;5084092;28;20059;-68
2023/06/13 05:31:12;;;;;;;0.80;0.80;;;;;;;19.97;89.08;96608.41;5083914;28;20052;-66
2023/06/13 05:33:40;;;;;;;0.80;0.80;;;;;;;20.32;87.13;96576.53;5084242;28;20075;-67
2023/06/13 05:36:07;;;;;;;0.82;0.82;;;;;;;19.97;85.13;96540.94;5083679;28;20044;-66
2023/06/13 05:38:33;;;;;;;0.80;0.80;;;;;;;20.41;84.46;96576.66;5083887;28;20047;-67
2023/06/13 05:41:00;;;;;;;0.80;0.80;;;;;;;19.64;87.33;96553.47;5082493;28;20126;-66
2023/06/13 05:43:27;;;;;;;0.75;0.75;;;;;;;19.43;87.80;96580.91;5082593;28;20426;-64
2023/06/13 05:45:53;;;;;;;0.80;0.80;;;;;;;19.44;89.27;96545.94;5078219;28;20059;-66
2023/06/13 05:48:20;;;;;;;0.85;0.85;;;;;;;19.17;87.31;96478.00;5076230;28;20144;-65
2023/06/13 05:50:47;;;;;;;0.80;0.80;;;;;;;18.89;89.64;96540.47;5078989;28;20123;-65
2023/06/13 05:53:14;;;;;;;0.80;0.80;;;;;;;18.84;90.00;96482.03;5063482;28;20048;-63
2023/06/13 05:55:41;;;;;;;0.73;0.73;;;;;;;19.77;89.08;96597.31;5063235;28;20159;-61
2023/06/13 05:58:07;;;;;;;0.80;0.80;;;;;;;19.16;87.20;96450.38;5067380;28;20136;-62
2023/06/13 06:00:34;;;;;;;0.80;0.80;;;;;;;19.66;86.23;96531.34;5080834;28;20048;-69
2023/06/13 06:03:04;;;;;;;0.70;0.70;;;;;;;20.05;85.54;96547.94;5083055;28;20054;-68
2023/06/13 06:05:31;;;;;;;0.73;0.73;;;;;;;20.46;84.05;96621.94;5062026;28;20075;-64
2023/06/13 06:07:58;;;;;;;0.80;0.80;;;;;;;20.59;82.32;96591.00;5065136;28;20040;-67
2023/06/13 06:10:25;;;;;;;0.80;0.80;;;;;;;20.73;82.44;96593.41;5068661;28;20056;-73
2023/06/13 06:12:51;;;;;;;0.90;0.90;;;;;;;20.83;82.40;96587.44;5078635;28;20052;-64
2023/06/13 06:15:19;;;;;;;0.80;0.80;;;;;;;20.87;81.71;96564.81;5085984;28;20542;-66
2023/06/13 06:17:45;;;;;;;0.90;0.90;;;;;;;21.00;81.85;96602.25;5084822;28;20044;-66
2023/06/13 06:20:12;;;;;;;0.80;0.80;;;;;;;21.12;80.19;96593.03;5085200;28;20588;-63
2023/06/13 06:22:40;;;;;;;0.90;0.90;;;;;;;20.75;80.17;96529.78;5078663;28;20125;-67
2023/06/13 06:25:12;;;;;;;0.90;0.90;;;;;;;20.04;81.88;96433.91;5067907;28;20048;-69
2023/06/13 06:27:43;;;;;;;0.90;0.90;;;;;;;21.30;80.12;96593.25;5068225;28;20058;-63
2023/06/13 06:30:10;;;;;;;0.90;0.90;;;;;;;21.08;80.25;96586.72;5075547;28;20457;-64
2023/06/13 06:32:37;;;;;;;0.90;0.90;;;;;;;21.40;79.29;96586.50;5078698;28;20054;-64
2023/06/13 06:35:04;;;;;;;0.90;0.90;;;;;;;21.18;79.38;96568.72;5083120;28;20044;-69
2023/06/13 06:37:32;;;;;;;0.90;0.90;;;;;;;21.24;77.09;96566.09;5084962;28;20066;-67
2023/06/13 06:39:59;;;;;;;0.90;0.90;;;;;;;21.66;77.55;96582.38;5086087;28;20055;-68
2023/06/13 06:42:26;;;;;;;0.90;0.90;;;;;;;21.05;76.29;96488.25;5086257;28;20052;-68
2023/06/13 06:44:52;;;;;;;0.90;0.90;;;;;;;21.59;77.17;96557.25;5086736;28;20044;-70
2023/06/13 06:47:19;;;;;;;0.90;0.90;;;;;;;21.42;76.75;96507.91;5080950;28;20119;-68
2023/06/13 06:49:46;;;;;;;0.93;0.93;;;;;;;22.12;75.93;96587.25;5069132;28;20060;-69
2023/06/13 06:52:13;;;;;;;0.82;0.82;;;;;;;21.63;75.72;96521.28;5077270;28;20111;-75
2023/06/13 06:54:39;;;;;;;0.90;0.90;;;;;;;21.78;74.75;96533.66;5079618;28;20082;-70
2023/06/13 06:57:06;;;;;;;0.90;0.90;;;;;;;22.29;74.73;96596.31;5075088;28;20052;-67
2023/06/13 06:59:33;;;;;;;1.00;1.00;;;;;;;22.15;73.35;96555.31;5076981;28;20481;-66
2023/06/13 07:01:59;;;;;;;0.85;0.85;;;;;;;22.18;72.93;96564.88;5084217;28;20146;-68
2023/06/13 07:04:27;;;;;;;0.90;0.90;;;;;;;22.03;74.76;96546.88;5076932;28;20049;-68
2023/06/13 07:06:54;;;;;;;1.00;1.00;;;;;;;22.40;73.44;96596.72;5074938;28;20510;-67
2023/06/13 07:09:21;;;;;;;0.95;0.95;;;;;;;21.26;75.24;96462.97;5066241;28;20143;-63
2023/06/13 07:11:47;;;;;;;1.00;1.00;;;;;;;21.98;75.93;96598.25;5063224;28;20079;-66
2023/06/13 07:14:14;;;;;;;1.10;1.10;;;;;;;21.81;75.60;96531.97;5075242;28;20118;-63
2023/06/13 07:16:41;;;;;;;1.00;1.00;;;;;;;22.11;75.71;96585.66;5081243;28;20083;-64
2023/06/13 07:19:09;;;;;;;0.90;0.90;;;;;;;21.50;74.89;96483.09;5085669;28;20135;-65
2023/06/13 07:21:35;;;;;;;0.90;0.90;;;;;;;22.02;75.66;96585.59;5083765;28;20055;-65
2023/06/13 07:24:03;;;;;;;0.93;0.93;;;;;;;22.09;75.68;96585.34;5077836;28;20055;-60
2023/06/13 07:26:34;;;;;;;1.00;1.00;;;;;;;22.31;74.53;96586.16;5076528;28;20048;-61
2023/06/13 07:29:01;;;;;;;0.98;0.98;;;;;;;22.12;73.80;96564.69;5075024;28;20057;-59
2023/06/13 07:31:28;;;;;;;1.00;1.00;;;;;;;22.20;73.65;96577.28;5077621;28;20052;-64
2023/06/13 07:33:55;;;;;;;1.02;1.02;;;;;;;22.23;73.91;96582.03;5084832;28;20106;-61
2023/06/13 07:36:22;;;;;;;1.10;1.10;;;;;;;21.98;73.33;96489.03;5077989;28;20052;-64
2023/06/13 07:38:51;;;;;;;0.90;0.90;;;;;;;22.64;73.33;96554.72;5070434;28;20056;-65
2023/06/13 07:41:17;;;;;;;1.00;1.00;;;;;;;22.98;71.83;96580.03;5065755;28;20048;-62
2023/06/13 07:43:44;;;;;;;1.00;1.00;;;;;;;22.92;71.58;96548.00;5066858;28;20052;-64
2023/06/13 07:46:11;;;;;;;1.15;1.15;;;;;;;22.84;68.75;96484.56;5063390;28;20059;-63
2023/06/13 07:48:38;;;;;;;1.20;1.20;;;;;;;23.48;69.09;96588.94;5063676;28;20106;-63
2023/06/13 07:51:05;;;;;;;1.02;1.02;;;;;;;23.31;69.10;96558.53;5072288;28;20132;-66
2023/06/13 07:53:32;;;;;;;1.00;1.00;;;;;;;22.76;68.49;96432.44;5070416;28;20097;-62
2023/06/13 07:55:59;;;;;;;1.20;1.20;;;;;;;23.70;68.21;96586.78;5077764;28;20113;-66
2023/06/13 07:58:25;;;;;;;1.13;1.13;;;;;;;23.75;67.44;96588.22;5082771;28;20497;-65
2023/06/13 08:00:52;;;;;;;1.20;1.20;;;;;;;23.30;67.00;96540.78;5064246;28;20049;-64
2023/06/13 08:03:19;;;;;;;1.00;1.00;;;;;;;23.36;66.72;96521.19;5064235;28;20056;-63
2023/06/13 08:05:49;;;;;;;1.15;1.15;;;;;;;23.53;68.07;96593.97;5079987;28;20533;-64
2023/06/13 08:08:16;;;;;;;1.10;1.10;;;;;;;23.40;68.63;96584.00;5067526;28;20123;-66
2023/06/13 08:10:42;;;;;;;1.05;1.05;;;;;;;23.28;68.14;96573.63;5074039;28;20582;-63
2023/06/13 08:13:09;;;;;;;1.20;1.20;;;;;;;23.33;68.12;96570.19;5075915;28;20044;-64
2023/06/13 08:15:36;;;;;;;1.30;1.30;;;;;;;23.69;67.36;96568.25;5071926;28;20142;-66
2023/06/13 08:18:03;;;;;;;1.27;1.27;;;;;;;23.72;65.90;96572.19;5070789;28;20050;-68
2023/06/13 08:20:29;;;;;;;1.20;1.20;;;;;;;23.38;66.46;96527.94;5078756;28;20460;-63
2023/06/13 08:22:56;;;;;;;1.20;1.20;;;;;;;23.25;66.76;96563.22;5080168;28;20044;-63
2023/06/13 08:25:24;;;;;;;1.08;1.08;;;;;;;23.51;66.69;96578.72;5072485;28;20056;-60
2023/06/13 08:27:52;;;;;;;1.20;1.20;;;;;;;23.38;66.61;96558.25;5077578;28;20093;-63
2023/06/13 08:30:19;;;;;;;1.20;1.20;;;;;;;23.48;67.30;96588.13;5073528;28;20075;-66
2023/06/13 08:32:46;;;;;;;1.20;1.20;;;;;;;22.89;67.87;96520.69;5077051;28;20056;-62
2023/06/13 08:35:13;;;;;;;1.10;1.10;;;;;;;22.84;69.73;96552.34;5078788;28;20052;-62
2023/06/13 08:37:41;;;;;;;1.20;1.20;;;;;;;22.98;69.51;96557.44;5074593;28;20525;-62
2023/06/13 08:40:10;;;;;;;1.08;1.08;;;;;;;23.34;70.14;96574.56;5062358;28;20507;-70
2023/06/13 08:42:38;;;;;;;1.20;1.20;;;;;;;22.61;70.01;96499.97;5064129;28;20053;-67
2023/06/13 08:45:07;;;;;;;1.27;1.27;;;;;;;23.53;68.63;96553.59;5079683;28;20121;-71
2023/06/13 08:47:34;;;;;;;1.20;1.20;;;;;;;23.58;67.11;96454.00;5071514;28;20060;-69
2023/06/13 08:50:06;;;;;;;1.20;1.20;;;;;;;23.27;68.51;96540.94;5069523;28;20055;-68
2023/06/13 08:52:39;;;;;;;1.27;1.27;;;;;;;24.10;68.46;96569.75;5074173;28;20075;-62
2023/06/13 08:55:12;;;;;;;1.23;1.23;;;;;;;22.94;66.36;96311.00;5068450;28;20056;-69
2023/06/13 08:58:02;;;;;;;1.30;1.30;;;;;;;24.33;65.59;96559.84;5062456;28;20140;-63
2023/06/13 09:00:35;;;;;;;1.23;1.23;;;;;;;24.17;65.85;96558.09;5083172;28;20102;-73
2023/06/13 09:03:06;;;;;;;1.15;1.15;;;;;;;23.43;66.94;96532.19;5078118;28;20037;-62
2023/06/13 09:05:34;;;;;;;1.20;1.20;;;;;;;23.76;66.92;96493.59;5067893;28;20408;-67
2023/06/13 09:08:02;;;;;;;1.30;1.30;;;;;;;24.05;65.21;96556.22;5062293;28;20431;-64
2023/06/13 09:10:50;;;;;;;1.20;1.20;;;;;;;22.59;69.39;96474.22;5066378;28;20134;-61
2023/06/13 09:13:17;;;;;;;1.20;1.20;;;;;;;23.72;67.37;96543.88;5069218;28;20059;-64
2023/06/13 09:15:45;;;;;;;1.25;1.25;;;;;;;23.07;66.21;96407.72;5074998;28;20431;-64
2023/06/13 09:18:12;;;;;;;1.33;1.33;;;;;;;23.66;64.66;96461.69;5071148;28;20121;-66
2023/06/13 09:20:39;;;;;;;1.30;1.30;;;;;;;24.33;63.26;96537.97;5077042;28;20143;-65
2023/06/13 09:23:07;;;;;;;1.33;1.33;;;;;;;24.40;64.73;96539.69;5071417;28;20446;-63
2023/06/13 09:25:36;;;;;;;1.30;1.30;;;;;;;24.57;62.31;96513.41;5064680;28;20044;-72
2023/06/13 09:28:30;;;;;;;1.35;1.35;;;;;;;24.58;61.85;96526.28;5075478;28;20044;-75
2023/06/13 09:30:57;;;;;;;1.33;1.33;;;;;;;24.03;63.29;96524.00;5079915;28;20137;-68
2023/06/13 09:33:24;;;;;;;1.25;1.25;;;;;;;23.96;62.28;96428.84;5082269;28;20052;-64
2023/06/13 09:35:52;;;;;;;1.10;1.10;;;;;;;24.79;60.83;96519.66;5081877;28;20489;-61
2023/06/13 09:38:23;;;;;;;1.30;1.30;;;;;;;24.52;62.81;96465.88;5076199;28;20435;-62
2023/06/13 09:40:54;;;;;;;1.30;1.30;;;;;;;25.23;60.07;96497.28;5083642;28;20052;-68
2023/06/13 09:43:24;;;;;;;1.30;1.30;;;;;;;24.11;63.12;96520.38;5064382;28;20060;-64
2023/06/13 09:45:51;;;;;;;1.40;1.40;;;;;;;24.86;61.57;96513.69;5066835;28;20044;-61
2023/06/13 09:48:18;;;;;;;1.20;1.20;;;;;;;24.91;58.66;96453.50;5076320;28;20438;-67
2023/06/13 09:50:45;;;;;;;1.45;1.45;;;;;;;25.65;59.50;96523.56;5074496;28;20052;-65
2023/06/13 09:53:12;;;;;;;1.50;1.50;;;;;;;25.90;57.63;96511.72;5084499;28;20063;-63
2023/06/13 09:55:39;;;;;;;1.40;1.40;;;;;;;25.66;59.33;96484.59;5069539;28;20048;-71
2023/06/13 09:58:06;;;;;;;1.50;1.50;;;;;;;25.32;58.59;96458.31;5086453;28;20043;-65
2023/06/13 10:00:59;;;;;;;1.30;1.30;;;;;;;25.64;58.51;96516.31;5068818;28;20068;-68
2023/06/13 10:03:30;;;;;;;;;;;;;;;25.62;57.79;96507.50;5067416;28;20426;-68
2023/06/13 10:05:58;;;;;;;1.40;1.40;;;;;;;25.55;58.20;96478.69;5065298;28;19924;-68
2023/06/13 10:08:25;;;;;;;1.30;1.30;;;;;;;25.84;58.48;96515.72;5067025;28;20245;-68
2023/06/13 10:10:54;;;;;;;1.38;1.38;;;;;;;25.67;56.25;96401.06;5066573;28;20052;-68
2023/06/13 10:13:35;;;;;;;1.52;1.52;;;;;;;26.24;54.64;96428.03;5067058;28;20991;-68
2023/06/13 10:16:04;;;;;;;1.30;1.30;;;;;;;27.34;53.67;96498.16;5066644;28;20055;-68
2023/06/13 10:18:36;;;;;;;1.48;1.48;;;;;;;27.66;51.26;96484.91;5067104;28;20044;-67
2023/06/13 10:21:06;;;;;;;1.60;1.60;;;;;;;28.26;50.87;96475.56;5066456;28;20135;-67
2023/06/13 10:23:40;;;;;;;1.60;1.60;;;;;;;28.77;48.66;96487.78;5066444;28;20078;-68
2023/06/13 10:26:11;;;;;;;1.70;1.70;;;;;;;28.71;50.08;96484.09;5066711;28;20102;-67
2023/06/13 10:28:46;;;;;;;1.70;1.70;;;;;;;28.83;49.66;96485.00;5066707;28;20059;-66
2023/06/13 10:31:32;;;;;;;1.58;1.58;;;;;;;28.08;51.35;96483.16;5066056;28;20139;-63
2023/06/13 10:34:09;;;;;;;1.40;1.40;;;;;;;27.36;51.46;96481.34;5066148;28;20047;-65
2023/06/13 10:37:00;;;;;;;1.38;1.38;;;;;;;27.22;52.40;96476.47;5073236;28;20048;-64
2023/06/13 10:39:30;;;;;;;1.60;1.60;;;;;;;25.64;56.06;96481.50;5082545;28;20076;-60
2023/06/13 10:41:57;;;;;;;1.40;1.40;;;;;;;25.92;56.46;96482.84;5075882;28;20055;-64
2023/06/13 10:44:40;;;;;;;1.50;1.50;;;;;;;25.82;55.52;96475.66;5076181;28;20048;-67
2023/06/13 10:47:07;;;;;;;1.30;1.30;;;;;;;25.85;55.48;96474.69;5071266;28;20044;-63
2023/06/13 10:49:38;;;;;;;1.27;1.27;;;;;;;25.39;55.79;96374.19;5071753;28;20082;-67
2023/06/13 10:52:12;;;;;;;1.52;1.52;;;;;;;26.69;54.07;96470.19;5080487;28;20040;-62
2023/06/13 10:54:48;;;;;;;1.50;1.50;;;;;;;26.89;53.23;96433.28;5084553;28;20051;-67
2023/06/13 10:57:15;;;;;;;1.40;1.40;;;;;;;26.26;51.66;96275.72;5065285;28;20062;-66
2023/06/13 10:59:42;;;;;;;1.23;1.23;;;;;;;26.54;50.71;96237.16;5070544;28;20059;-66
2023/06/13 11:02:14;;;;;;;1.60;1.60;;;;;;;28.33;49.58;96458.06;5086154;28;20048;-64
2023/06/13 11:04:49;;;;;;;1.30;1.30;;;;;;;28.24;48.03;96384.13;5077578;28;20050;-65
2023/06/13 11:07:22;;;;;;;1.60;1.60;;;;;;;28.98;46.20;96448.56;5070493;28;20051;-66
2023/06/13 11:10:02;;;;;;;1.60;1.60;;;;;;;28.47;46.08;96417.25;5064473;28;20137;-62
2023/06/13 11:12:29;;;;;;;1.60;1.60;;;;;;;28.21;46.43;96445.75;5065226;28;20052;-63
2023/06/13 11:14:59;;;;;;;1.50;1.50;;;;;;;28.40;46.56;96435.59;5064975;28;20149;-64
2023/06/13 11:17:27;;;;;;;1.65;1.65;;;;;;;28.52;46.01;96445.03;5067793;28;20456;-64
2023/06/13 11:19:56;;;;;;;1.48;1.48;;;;;;;28.29;46.25;96434.69;5073422;28;20532;-65
2023/06/13 11:22:23;;;;;;;1.50;1.50;;;;;;;28.29;46.32;96423.28;5065690;28;20044;-66
2023/06/13 11:24:53;;;;;;;1.70;1.70;;;;;;;28.16;48.63;96429.38;5069504;28;20082;-64
2023/06/13 11:27:20;;;;;;;1.30;1.30;;;;;;;28.61;46.98;96428.53;5075894;28;20044;-63
2023/06/13 11:29:48;;;;;;;1.50;1.50;;;;;;;27.86;45.32;96346.19;5076425;28;20052;-66
2023/06/13 11:32:16;;;;;;;1.40;1.40;;;;;;;28.45;46.55;96397.03;5080464;28;20052;-60
2023/06/13 11:34:47;;;;;;;1.67;1.67;;;;;;;28.63;45.95;96348.25;5070856;28;20499;-62
2023/06/13 11:37:28;;;;;;;1.38;1.38;;;;;;;28.64;46.13;96410.47;5073057;28;20332;-61
2023/06/13 11:39:56;;;;;;;1.63;1.63;;;;;;;28.11;46.34;96291.31;5078509;28;20056;-65